sensor_id;sensor_type;location;lat;lon;timestamp;P1;durP1;ratioP1;P2;durP2;ratioP2
36403;SDS011;22437;55.646;37.518;2022-08-19T00:00:08;10.10;;;5.32;;
36403;SDS011;22437;55.646;37.518;2022-08-19T00:02:41;13.25;;;7.30;;
36403;SDS011;22437;55.646;37.518;2022-08-19T00:05:16;7.20;;;4.78;;
36403;SDS011;22437;55.646;37.518;2022-08-19T00:07:49;6.28;;;3.78;;
36403;SDS011;22437;55.646;37.518;2022-08-19T00:10:19;6.85;;;4.45;;
36403;SDS011;22437;55.646;37.518;2022-08-19T00:12:48;8.70;;;4.85;;
36403;SDS011;22437;55.646;37.518;2022-08-19T00:15:19;7.50;;;4.05;;
36403;SDS011;22437;55.646;37.518;2022-08-19T00:17:49;9.10;;;5.00;;
36403;SDS011;22437;55.646;37.518;2022-08-19T00:20:20;9.63;;;3.80;;
36403;SDS011;22437;55.646;37.518;2022-08-19T00:22:51;9.25;;;4.30;;
36403;SDS011;22437;55.646;37.518;2022-08-19T00:25:21;7.47;;;4.10;;
36403;SDS011;22437;55.646;37.518;2022-08-19T00:27:56;12.32;;;5.18;;
36403;SDS011;22437;55.646;37.518;2022-08-19T00:30:26;12.73;;;4.68;;
36403;SDS011;22437;55.646;37.518;2022-08-19T00:32:56;7.45;;;4.50;;
36403;SDS011;22437;55.646;37.518;2022-08-19T00:35:25;10.15;;;5.15;;
36403;SDS011;22437;55.646;37.518;2022-08-19T00:37:58;8.88;;;5.07;;
36403;SDS011;22437;55.646;37.518;2022-08-19T00:40:27;8.65;;;4.53;;
36403;SDS011;22437;55.646;37.518;2022-08-19T00:42:57;8.60;;;4.60;;
36403;SDS011;22437;55.646;37.518;2022-08-19T00:45:28;8.52;;;4.75;;
36403;SDS011;22437;55.646;37.518;2022-08-19T00:48:02;8.20;;;5.25;;
36403;SDS011;22437;55.646;37.518;2022-08-19T00:50:40;9.23;;;4.85;;
36403;SDS011;22437;55.646;37.518;2022-08-19T00:53:20;9.90;;;4.60;;
36403;SDS011;22437;55.646;37.518;2022-08-19T00:55:54;10.05;;;4.85;;
36403;SDS011;22437;55.646;37.518;2022-08-19T00:58:29;8.30;;;4.53;;
36403;SDS011;22437;55.646;37.518;2022-08-19T01:01:01;9.10;;;5.53;;
36403;SDS011;22437;55.646;37.518;2022-08-19T01:03:31;17.65;;;7.15;;
36403;SDS011;22437;55.646;37.518;2022-08-19T01:06:23;8.90;;;5.72;;
36403;SDS011;22437;55.646;37.518;2022-08-19T01:08:54;13.20;;;5.95;;
36403;SDS011;22437;55.646;37.518;2022-08-19T01:11:24;14.10;;;6.38;;
36403;SDS011;22437;55.646;37.518;2022-08-19T01:13:54;9.55;;;5.57;;
36403;SDS011;22437;55.646;37.518;2022-08-19T01:16:25;12.15;;;5.05;;
36403;SDS011;22437;55.646;37.518;2022-08-19T01:18:57;11.77;;;5.50;;
36403;SDS011;22437;55.646;37.518;2022-08-19T01:21:27;10.02;;;4.50;;
36403;SDS011;22437;55.646;37.518;2022-08-19T01:24:03;7.95;;;5.15;;
36403;SDS011;22437;55.646;37.518;2022-08-19T01:26:37;9.88;;;5.10;;
36403;SDS011;22437;55.646;37.518;2022-08-19T01:29:10;9.20;;;4.75;;
36403;SDS011;22437;55.646;37.518;2022-08-19T01:34:10;9.85;;;4.50;;
36403;SDS011;22437;55.646;37.518;2022-08-19T01:36:41;11.15;;;4.72;;
36403;SDS011;22437;55.646;37.518;2022-08-19T01:39:17;8.95;;;4.70;;
36403;SDS011;22437;55.646;37.518;2022-08-19T01:41:49;10.82;;;4.43;;
36403;SDS011;22437;55.646;37.518;2022-08-19T01:44:22;10.18;;;5.13;;
36403;SDS011;22437;55.646;37.518;2022-08-19T01:46:51;8.65;;;4.55;;
36403;SDS011;22437;55.646;37.518;2022-08-19T01:49:21;12.30;;;4.82;;
36403;SDS011;22437;55.646;37.518;2022-08-19T01:51:54;8.27;;;4.38;;
36403;SDS011;22437;55.646;37.518;2022-08-19T01:54:27;12.82;;;4.38;;
36403;SDS011;22437;55.646;37.518;2022-08-19T01:56:57;8.48;;;3.80;;
36403;SDS011;22437;55.646;37.518;2022-08-19T01:59:30;17.95;;;9.48;;
36403;SDS011;22437;55.646;37.518;2022-08-19T02:02:01;14.70;;;8.13;;
36403;SDS011;22437;55.646;37.518;2022-08-19T02:04:32;12.63;;;8.18;;
36403;SDS011;22437;55.646;37.518;2022-08-19T02:07:03;7.07;;;5.07;;
36403;SDS011;22437;55.646;37.518;2022-08-19T02:09:35;12.75;;;7.78;;
36403;SDS011;22437;55.646;37.518;2022-08-19T02:12:04;10.73;;;3.65;;
36403;SDS011;22437;55.646;37.518;2022-08-19T02:17:06;12.05;;;4.00;;
36403;SDS011;22437;55.646;37.518;2022-08-19T02:19:37;6.88;;;3.70;;
36403;SDS011;22437;55.646;37.518;2022-08-19T02:22:09;6.60;;;4.05;;
36403;SDS011;22437;55.646;37.518;2022-08-19T02:24:40;7.20;;;4.35;;
36403;SDS011;22437;55.646;37.518;2022-08-19T02:27:09;8.52;;;4.03;;
36403;SDS011;22437;55.646;37.518;2022-08-19T02:29:38;7.15;;;3.95;;
36403;SDS011;22437;55.646;37.518;2022-08-19T02:32:08;8.98;;;4.80;;
36403;SDS011;22437;55.646;37.518;2022-08-19T02:34:37;10.20;;;3.85;;
36403;SDS011;22437;55.646;37.518;2022-08-19T02:37:07;4.93;;;4.10;;
36403;SDS011;22437;55.646;37.518;2022-08-19T02:40:02;8.60;;;4.10;;
36403;SDS011;22437;55.646;37.518;2022-08-19T02:42:39;11.13;;;4.68;;
36403;SDS011;22437;55.646;37.518;2022-08-19T02:47:40;8.95;;;4.57;;
36403;SDS011;22437;55.646;37.518;2022-08-19T02:50:11;9.55;;;4.50;;
36403;SDS011;22437;55.646;37.518;2022-08-19T02:52:41;5.57;;;4.10;;
36403;SDS011;22437;55.646;37.518;2022-08-19T02:55:13;9.27;;;4.30;;
36403;SDS011;22437;55.646;37.518;2022-08-19T02:57:44;10.13;;;5.63;;
36403;SDS011;22437;55.646;37.518;2022-08-19T03:00:14;10.15;;;5.20;;
36403;SDS011;22437;55.646;37.518;2022-08-19T03:02:44;11.27;;;6.72;;
36403;SDS011;22437;55.646;37.518;2022-08-19T03:05:15;12.00;;;7.03;;
36403;SDS011;22437;55.646;37.518;2022-08-19T03:07:54;10.88;;;4.75;;
36403;SDS011;22437;55.646;37.518;2022-08-19T03:10:25;9.45;;;4.95;;
36403;SDS011;22437;55.646;37.518;2022-08-19T03:12:54;11.43;;;4.80;;
36403;SDS011;22437;55.646;37.518;2022-08-19T03:15:28;8.63;;;4.60;;
36403;SDS011;22437;55.646;37.518;2022-08-19T03:17:58;8.43;;;4.40;;
36403;SDS011;22437;55.646;37.518;2022-08-19T03:20:28;10.05;;;5.22;;
36403;SDS011;22437;55.646;37.518;2022-08-19T03:22:58;9.35;;;4.35;;
36403;SDS011;22437;55.646;37.518;2022-08-19T03:25:31;11.07;;;4.43;;
36403;SDS011;22437;55.646;37.518;2022-08-19T03:28:05;9.15;;;4.72;;
36403;SDS011;22437;55.646;37.518;2022-08-19T03:30:35;7.22;;;4.38;;
36403;SDS011;22437;55.646;37.518;2022-08-19T03:33:09;5.80;;;4.05;;
36403;SDS011;22437;55.646;37.518;2022-08-19T03:36:05;9.02;;;4.82;;
36403;SDS011;22437;55.646;37.518;2022-08-19T03:38:37;9.93;;;4.22;;
36403;SDS011;22437;55.646;37.518;2022-08-19T03:41:09;9.45;;;4.00;;
36403;SDS011;22437;55.646;37.518;2022-08-19T03:43:42;10.23;;;4.25;;
36403;SDS011;22437;55.646;37.518;2022-08-19T03:48:44;7.07;;;4.53;;
36403;SDS011;22437;55.646;37.518;2022-08-19T03:51:17;9.88;;;3.83;;
36403;SDS011;22437;55.646;37.518;2022-08-19T03:53:58;6.97;;;4.22;;
36403;SDS011;22437;55.646;37.518;2022-08-19T03:56:29;8.18;;;5.20;;
36403;SDS011;22437;55.646;37.518;2022-08-19T03:58:59;10.80;;;4.60;;
36403;SDS011;22437;55.646;37.518;2022-08-19T04:01:28;13.10;;;4.97;;
36403;SDS011;22437;55.646;37.518;2022-08-19T04:04:02;10.77;;;5.38;;
36403;SDS011;22437;55.646;37.518;2022-08-19T04:06:34;14.43;;;6.85;;
36403;SDS011;22437;55.646;37.518;2022-08-19T04:09:07;19.83;;;13.63;;
36403;SDS011;22437;55.646;37.518;2022-08-19T04:11:43;7.20;;;5.18;;
36403;SDS011;22437;55.646;37.518;2022-08-19T04:14:15;12.60;;;5.00;;
36403;SDS011;22437;55.646;37.518;2022-08-19T04:16:47;15.48;;;4.65;;
36403;SDS011;22437;55.646;37.518;2022-08-19T04:19:18;11.35;;;4.40;;
36403;SDS011;22437;55.646;37.518;2022-08-19T04:24:20;14.20;;;6.07;;
36403;SDS011;22437;55.646;37.518;2022-08-19T04:26:53;9.63;;;5.07;;
36403;SDS011;22437;55.646;37.518;2022-08-19T04:29:23;10.70;;;5.50;;
36403;SDS011;22437;55.646;37.518;2022-08-19T04:31:55;8.70;;;4.65;;
36403;SDS011;22437;55.646;37.518;2022-08-19T04:34:26;13.02;;;4.80;;
36403;SDS011;22437;55.646;37.518;2022-08-19T04:36:57;9.60;;;4.20;;
36403;SDS011;22437;55.646;37.518;2022-08-19T04:39:28;13.90;;;4.80;;
36403;SDS011;22437;55.646;37.518;2022-08-19T04:42:14;9.00;;;4.53;;
36403;SDS011;22437;55.646;37.518;2022-08-19T04:45:02;8.27;;;4.45;;
36403;SDS011;22437;55.646;37.518;2022-08-19T04:47:39;9.90;;;5.00;;
36403;SDS011;22437;55.646;37.518;2022-08-19T04:50:23;7.63;;;4.57;;
36403;SDS011;22437;55.646;37.518;2022-08-19T04:52:53;13.85;;;5.38;;
36403;SDS011;22437;55.646;37.518;2022-08-19T04:55:24;11.63;;;4.97;;
36403;SDS011;22437;55.646;37.518;2022-08-19T04:57:58;8.88;;;4.45;;
36403;SDS011;22437;55.646;37.518;2022-08-19T05:00:28;7.15;;;4.68;;
36403;SDS011;22437;55.646;37.518;2022-08-19T05:03:01;9.30;;;4.25;;
36403;SDS011;22437;55.646;37.518;2022-08-19T05:05:38;10.20;;;5.32;;
36403;SDS011;22437;55.646;37.518;2022-08-19T05:08:12;8.05;;;4.68;;
36403;SDS011;22437;55.646;37.518;2022-08-19T05:10:57;11.48;;;4.93;;
36403;SDS011;22437;55.646;37.518;2022-08-19T05:13:28;7.90;;;4.63;;
36403;SDS011;22437;55.646;37.518;2022-08-19T05:15:59;9.10;;;4.35;;
36403;SDS011;22437;55.646;37.518;2022-08-19T05:18:29;6.90;;;4.65;;
36403;SDS011;22437;55.646;37.518;2022-08-19T05:21:17;11.10;;;4.90;;
36403;SDS011;22437;55.646;37.518;2022-08-19T05:24:07;10.68;;;5.45;;
36403;SDS011;22437;55.646;37.518;2022-08-19T05:26:40;10.77;;;5.40;;
36403;SDS011;22437;55.646;37.518;2022-08-19T05:29:15;11.75;;;5.20;;
36403;SDS011;22437;55.646;37.518;2022-08-19T05:31:50;10.70;;;5.75;;
36403;SDS011;22437;55.646;37.518;2022-08-19T05:34:21;14.10;;;5.90;;
36403;SDS011;22437;55.646;37.518;2022-08-19T05:36:54;14.32;;;5.60;;
36403;SDS011;22437;55.646;37.518;2022-08-19T05:39:28;9.23;;;4.95;;
36403;SDS011;22437;55.646;37.518;2022-08-19T05:42:01;14.43;;;5.75;;
36403;SDS011;22437;55.646;37.518;2022-08-19T05:44:38;9.27;;;5.40;;
36403;SDS011;22437;55.646;37.518;2022-08-19T05:47:12;12.40;;;5.30;;
36403;SDS011;22437;55.646;37.518;2022-08-19T05:49:46;7.55;;;5.07;;
36403;SDS011;22437;55.646;37.518;2022-08-19T05:52:19;10.98;;;5.40;;
36403;SDS011;22437;55.646;37.518;2022-08-19T05:54:52;7.80;;;4.88;;
36403;SDS011;22437;55.646;37.518;2022-08-19T05:57:23;13.05;;;6.07;;
36403;SDS011;22437;55.646;37.518;2022-08-19T05:59:58;10.95;;;6.15;;
36403;SDS011;22437;55.646;37.518;2022-08-19T06:02:38;24.95;;;5.75;;
36403;SDS011;22437;55.646;37.518;2022-08-19T06:05:09;7.72;;;5.13;;
36403;SDS011;22437;55.646;37.518;2022-08-19T06:07:39;9.20;;;4.90;;
36403;SDS011;22437;55.646;37.518;2022-08-19T06:10:10;9.00;;;5.28;;
36403;SDS011;22437;55.646;37.518;2022-08-19T06:12:40;15.85;;;5.22;;
36403;SDS011;22437;55.646;37.518;2022-08-19T06:15:12;12.13;;;5.25;;
36403;SDS011;22437;55.646;37.518;2022-08-19T06:17:43;9.38;;;5.00;;
36403;SDS011;22437;55.646;37.518;2022-08-19T06:20:14;8.13;;;5.50;;
36403;SDS011;22437;55.646;37.518;2022-08-19T06:23:07;12.05;;;5.57;;
36403;SDS011;22437;55.646;37.518;2022-08-19T06:25:42;11.00;;;5.82;;
36403;SDS011;22437;55.646;37.518;2022-08-19T06:28:13;16.30;;;4.95;;
36403;SDS011;22437;55.646;37.518;2022-08-19T06:30:46;10.50;;;4.82;;
36403;SDS011;22437;55.646;37.518;2022-08-19T06:33:16;10.88;;;5.00;;
36403;SDS011;22437;55.646;37.518;2022-08-19T06:35:46;13.57;;;5.33;;
36403;SDS011;22437;55.646;37.518;2022-08-19T06:38:16;8.77;;;4.90;;
36403;SDS011;22437;55.646;37.518;2022-08-19T06:40:50;15.15;;;4.85;;
36403;SDS011;22437;55.646;37.518;2022-08-19T06:43:34;14.05;;;5.75;;
36403;SDS011;22437;55.646;37.518;2022-08-19T06:46:16;8.77;;;4.97;;
36403;SDS011;22437;55.646;37.518;2022-08-19T06:48:47;8.50;;;4.78;;
36403;SDS011;22437;55.646;37.518;2022-08-19T06:51:17;12.13;;;5.03;;
36403;SDS011;22437;55.646;37.518;2022-08-19T06:53:50;16.35;;;4.70;;
36403;SDS011;22437;55.646;37.518;2022-08-19T06:56:23;13.35;;;5.13;;
36403;SDS011;22437;55.646;37.518;2022-08-19T06:59:00;13.40;;;5.28;;
36403;SDS011;22437;55.646;37.518;2022-08-19T07:01:35;9.23;;;4.97;;
36403;SDS011;22437;55.646;37.518;2022-08-19T07:04:08;9.13;;;4.82;;
36403;SDS011;22437;55.646;37.518;2022-08-19T07:06:38;10.70;;;5.03;;
36403;SDS011;22437;55.646;37.518;2022-08-19T07:09:11;9.02;;;4.72;;
36403;SDS011;22437;55.646;37.518;2022-08-19T07:11:47;11.25;;;4.55;;
36403;SDS011;22437;55.646;37.518;2022-08-19T07:14:22;11.77;;;4.55;;
36403;SDS011;22437;55.646;37.518;2022-08-19T07:16:55;6.78;;;4.40;;
36403;SDS011;22437;55.646;37.518;2022-08-19T07:19:26;10.95;;;4.63;;
36403;SDS011;22437;55.646;37.518;2022-08-19T07:21:55;8.03;;;5.10;;
36403;SDS011;22437;55.646;37.518;2022-08-19T07:24:29;9.95;;;4.00;;
36403;SDS011;22437;55.646;37.518;2022-08-19T07:27:00;8.07;;;4.50;;
36403;SDS011;22437;55.646;37.518;2022-08-19T07:29:41;7.65;;;4.30;;
36403;SDS011;22437;55.646;37.518;2022-08-19T07:32:24;9.90;;;4.47;;
36403;SDS011;22437;55.646;37.518;2022-08-19T07:34:54;10.73;;;5.00;;
36403;SDS011;22437;55.646;37.518;2022-08-19T07:37:24;9.30;;;4.40;;
36403;SDS011;22437;55.646;37.518;2022-08-19T07:39:59;8.70;;;4.63;;
36403;SDS011;22437;55.646;37.518;2022-08-19T07:42:29;6.93;;;4.18;;
36403;SDS011;22437;55.646;37.518;2022-08-19T07:45:00;6.40;;;4.00;;
36403;SDS011;22437;55.646;37.518;2022-08-19T07:47:31;11.20;;;4.40;;
36403;SDS011;22437;55.646;37.518;2022-08-19T07:50:18;7.63;;;3.72;;
36403;SDS011;22437;55.646;37.518;2022-08-19T07:55:21;9.73;;;4.10;;
36403;SDS011;22437;55.646;37.518;2022-08-19T07:58:12;9.85;;;4.05;;
36403;SDS011;22437;55.646;37.518;2022-08-19T08:00:45;12.23;;;3.92;;
36403;SDS011;22437;55.646;37.518;2022-08-19T08:03:19;9.95;;;4.40;;
36403;SDS011;22437;55.646;37.518;2022-08-19T08:06:14;9.23;;;3.00;;
36403;SDS011;22437;55.646;37.518;2022-08-19T08:09:03;9.30;;;3.17;;
36403;SDS011;22437;55.646;37.518;2022-08-19T08:11:58;9.70;;;3.73;;
36403;SDS011;22437;55.646;37.518;2022-08-19T08:14:52;13.15;;;3.88;;
36403;SDS011;22437;55.646;37.518;2022-08-19T08:17:24;12.30;;;3.22;;
36403;SDS011;22437;55.646;37.518;2022-08-19T08:20:18;9.90;;;3.67;;
36403;SDS011;22437;55.646;37.518;2022-08-19T08:22:49;9.48;;;3.30;;
36403;SDS011;22437;55.646;37.518;2022-08-19T08:25:36;7.40;;;3.30;;
36403;SDS011;22437;55.646;37.518;2022-08-19T08:28:07;7.73;;;3.53;;
36403;SDS011;22437;55.646;37.518;2022-08-19T08:30:44;5.65;;;4.18;;
36403;SDS011;22437;55.646;37.518;2022-08-19T08:33:17;7.25;;;3.33;;
36403;SDS011;22437;55.646;37.518;2022-08-19T08:36:04;7.50;;;3.50;;
36403;SDS011;22437;55.646;37.518;2022-08-19T08:38:35;6.43;;;3.67;;
36403;SDS011;22437;55.646;37.518;2022-08-19T08:41:09;8.90;;;3.70;;
36403;SDS011;22437;55.646;37.518;2022-08-19T08:43:49;8.07;;;3.70;;
36403;SDS011;22437;55.646;37.518;2022-08-19T08:46:23;6.70;;;4.07;;
36403;SDS011;22437;55.646;37.518;2022-08-19T08:49:00;5.60;;;3.35;;
36403;SDS011;22437;55.646;37.518;2022-08-19T08:51:38;10.23;;;3.90;;
36403;SDS011;22437;55.646;37.518;2022-08-19T08:54:14;7.60;;;3.80;;
36403;SDS011;22437;55.646;37.518;2022-08-19T08:56:49;6.63;;;3.30;;
36403;SDS011;22437;55.646;37.518;2022-08-19T08:59:23;6.22;;;2.67;;
36403;SDS011;22437;55.646;37.518;2022-08-19T09:01:59;6.35;;;2.75;;
36403;SDS011;22437;55.646;37.518;2022-08-19T09:04:30;4.57;;;3.00;;
36403;SDS011;22437;55.646;37.518;2022-08-19T09:07:07;5.30;;;2.78;;
36403;SDS011;22437;55.646;37.518;2022-08-19T09:10:03;6.78;;;2.78;;
36403;SDS011;22437;55.646;37.518;2022-08-19T09:12:41;3.78;;;2.60;;
36403;SDS011;22437;55.646;37.518;2022-08-19T09:15:22;10.73;;;5.15;;
36403;SDS011;22437;55.646;37.518;2022-08-19T09:18:03;7.68;;;3.70;;
36403;SDS011;22437;55.646;37.518;2022-08-19T09:20:41;6.05;;;2.90;;
36403;SDS011;22437;55.646;37.518;2022-08-19T09:23:13;9.77;;;3.55;;
36403;SDS011;22437;55.646;37.518;2022-08-19T09:25:44;5.75;;;3.03;;
36403;SDS011;22437;55.646;37.518;2022-08-19T09:28:14;6.95;;;3.33;;
36403;SDS011;22437;55.646;37.518;2022-08-19T09:30:53;8.77;;;4.30;;
36403;SDS011;22437;55.646;37.518;2022-08-19T09:33:23;5.50;;;3.75;;
36403;SDS011;22437;55.646;37.518;2022-08-19T09:36:04;5.57;;;3.00;;
36403;SDS011;22437;55.646;37.518;2022-08-19T09:38:39;7.93;;;3.25;;
36403;SDS011;22437;55.646;37.518;2022-08-19T09:41:12;4.90;;;3.22;;
36403;SDS011;22437;55.646;37.518;2022-08-19T09:43:48;4.45;;;2.80;;
36403;SDS011;22437;55.646;37.518;2022-08-19T09:46:21;6.53;;;3.03;;
36403;SDS011;22437;55.646;37.518;2022-08-19T09:48:53;4.43;;;2.92;;
36403;SDS011;22437;55.646;37.518;2022-08-19T09:51:32;3.95;;;2.90;;
36403;SDS011;22437;55.646;37.518;2022-08-19T09:54:07;11.90;;;4.00;;
36403;SDS011;22437;55.646;37.518;2022-08-19T09:56:37;10.48;;;6.18;;
36403;SDS011;22437;55.646;37.518;2022-08-19T09:59:09;6.75;;;3.30;;
36403;SDS011;22437;55.646;37.518;2022-08-19T10:01:40;10.02;;;5.25;;
36403;SDS011;22437;55.646;37.518;2022-08-19T10:04:12;9.32;;;4.75;;
36403;SDS011;22437;55.646;37.518;2022-08-19T10:06:47;7.20;;;3.70;;
36403;SDS011;22437;55.646;37.518;2022-08-19T10:09:23;12.95;;;4.07;;
36403;SDS011;22437;55.646;37.518;2022-08-19T10:12:00;8.02;;;3.83;;
36403;SDS011;22437;55.646;37.518;2022-08-19T10:14:33;5.40;;;3.38;;
36403;SDS011;22437;55.646;37.518;2022-08-19T10:17:05;10.55;;;2.67;;
36403;SDS011;22437;55.646;37.518;2022-08-19T10:19:47;6.30;;;2.42;;
36403;SDS011;22437;55.646;37.518;2022-08-19T10:22:22;7.60;;;3.17;;
36403;SDS011;22437;55.646;37.518;2022-08-19T10:24:54;10.75;;;2.60;;
36403;SDS011;22437;55.646;37.518;2022-08-19T10:27:24;8.98;;;2.33;;
36403;SDS011;22437;55.646;37.518;2022-08-19T10:29:58;6.30;;;2.38;;
36403;SDS011;22437;55.646;37.518;2022-08-19T10:32:29;5.38;;;2.33;;
36403;SDS011;22437;55.646;37.518;2022-08-19T10:35:03;5.90;;;2.70;;
36403;SDS011;22437;55.646;37.518;2022-08-19T10:37:36;11.48;;;2.50;;
36403;SDS011;22437;55.646;37.518;2022-08-19T10:40:34;6.18;;;2.42;;
36403;SDS011;22437;55.646;37.518;2022-08-19T10:43:05;12.63;;;3.08;;
36403;SDS011;22437;55.646;37.518;2022-08-19T10:45:35;8.73;;;3.25;;
36403;SDS011;22437;55.646;37.518;2022-08-19T10:48:23;12.25;;;5.75;;
36403;SDS011;22437;55.646;37.518;2022-08-19T10:50:57;7.07;;;2.42;;
36403;SDS011;22437;55.646;37.518;2022-08-19T10:53:50;6.22;;;2.30;;
36403;SDS011;22437;55.646;37.518;2022-08-19T10:56:23;9.50;;;2.40;;
36403;SDS011;22437;55.646;37.518;2022-08-19T10:59:14;6.65;;;2.65;;
36403;SDS011;22437;55.646;37.518;2022-08-19T11:01:46;3.50;;;2.42;;
36403;SDS011;22437;55.646;37.518;2022-08-19T11:04:23;4.00;;;2.72;;
36403;SDS011;22437;55.646;37.518;2022-08-19T11:06:55;4.82;;;2.50;;
36403;SDS011;22437;55.646;37.518;2022-08-19T11:09:28;5.17;;;2.20;;
36403;SDS011;22437;55.646;37.518;2022-08-19T11:12:02;8.07;;;2.50;;
36403;SDS011;22437;55.646;37.518;2022-08-19T11:14:31;3.45;;;2.22;;
36403;SDS011;22437;55.646;37.518;2022-08-19T11:17:02;9.63;;;2.72;;
36403;SDS011;22437;55.646;37.518;2022-08-19T11:19:34;5.03;;;2.40;;
36403;SDS011;22437;55.646;37.518;2022-08-19T11:22:06;4.25;;;2.42;;
36403;SDS011;22437;55.646;37.518;2022-08-19T11:24:42;5.65;;;2.42;;
36403;SDS011;22437;55.646;37.518;2022-08-19T11:27:14;6.93;;;2.22;;
36403;SDS011;22437;55.646;37.518;2022-08-19T11:29:44;5.55;;;2.50;;
36403;SDS011;22437;55.646;37.518;2022-08-19T11:32:15;8.82;;;2.83;;
36403;SDS011;22437;55.646;37.518;2022-08-19T11:34:44;6.72;;;2.67;;
36403;SDS011;22437;55.646;37.518;2022-08-19T11:37:15;6.80;;;4.30;;
36403;SDS011;22437;55.646;37.518;2022-08-19T11:39:47;8.55;;;4.57;;
36403;SDS011;22437;55.646;37.518;2022-08-19T11:42:22;8.77;;;2.85;;
36403;SDS011;22437;55.646;37.518;2022-08-19T11:45:10;7.20;;;2.85;;
36403;SDS011;22437;55.646;37.518;2022-08-19T11:47:41;11.25;;;2.80;;
36403;SDS011;22437;55.646;37.518;2022-08-19T11:50:11;10.00;;;3.00;;
36403;SDS011;22437;55.646;37.518;2022-08-19T11:52:42;6.03;;;2.92;;
36403;SDS011;22437;55.646;37.518;2022-08-19T11:55:13;7.47;;;2.70;;
36403;SDS011;22437;55.646;37.518;2022-08-19T11:57:46;5.80;;;2.78;;
36403;SDS011;22437;55.646;37.518;2022-08-19T12:00:19;6.95;;;3.17;;
36403;SDS011;22437;55.646;37.518;2022-08-19T12:02:48;3.95;;;2.53;;
36403;SDS011;22437;55.646;37.518;2022-08-19T12:05:19;5.35;;;2.58;;
36403;SDS011;22437;55.646;37.518;2022-08-19T12:07:51;10.02;;;2.72;;
36403;SDS011;22437;55.646;37.518;2022-08-19T12:10:22;10.50;;;3.22;;
36403;SDS011;22437;55.646;37.518;2022-08-19T12:12:58;4.53;;;3.03;;
36403;SDS011;22437;55.646;37.518;2022-08-19T12:15:28;6.50;;;3.17;;
36403;SDS011;22437;55.646;37.518;2022-08-19T12:18:04;22.83;;;16.98;;
36403;SDS011;22437;55.646;37.518;2022-08-19T12:20:36;6.53;;;4.65;;
36403;SDS011;22437;55.646;37.518;2022-08-19T12:23:08;9.23;;;4.15;;
36403;SDS011;22437;55.646;37.518;2022-08-19T12:25:43;7.40;;;3.47;;
36403;SDS011;22437;55.646;37.518;2022-08-19T12:28:23;12.18;;;3.45;;
36403;SDS011;22437;55.646;37.518;2022-08-19T12:30:55;7.95;;;3.10;;
36403;SDS011;22437;55.646;37.518;2022-08-19T12:33:26;6.63;;;3.40;;
36403;SDS011;22437;55.646;37.518;2022-08-19T12:35:59;6.78;;;3.10;;
36403;SDS011;22437;55.646;37.518;2022-08-19T12:38:31;6.00;;;2.70;;
36403;SDS011;22437;55.646;37.518;2022-08-19T12:43:37;8.52;;;2.90;;
36403;SDS011;22437;55.646;37.518;2022-08-19T12:46:09;6.53;;;2.78;;
36403;SDS011;22437;55.646;37.518;2022-08-19T12:48:43;5.20;;;2.80;;
36403;SDS011;22437;55.646;37.518;2022-08-19T12:51:20;8.13;;;2.90;;
36403;SDS011;22437;55.646;37.518;2022-08-19T12:53:50;9.02;;;2.80;;
36403;SDS011;22437;55.646;37.518;2022-08-19T12:56:21;7.25;;;2.85;;
36403;SDS011;22437;55.646;37.518;2022-08-19T12:58:54;8.32;;;3.05;;
36403;SDS011;22437;55.646;37.518;2022-08-19T13:01:31;6.93;;;2.47;;
36403;SDS011;22437;55.646;37.518;2022-08-19T13:04:02;11.20;;;3.22;;
36403;SDS011;22437;55.646;37.518;2022-08-19T13:06:34;9.10;;;2.95;;
36403;SDS011;22437;55.646;37.518;2022-08-19T13:09:07;6.75;;;3.22;;
36403;SDS011;22437;55.646;37.518;2022-08-19T13:11:37;5.90;;;3.03;;
36403;SDS011;22437;55.646;37.518;2022-08-19T13:14:13;7.70;;;3.42;;
36403;SDS011;22437;55.646;37.518;2022-08-19T13:16:42;3.72;;;2.85;;
36403;SDS011;22437;55.646;37.518;2022-08-19T13:19:14;13.00;;;4.30;;
36403;SDS011;22437;55.646;37.518;2022-08-19T13:21:49;11.45;;;4.40;;
36403;SDS011;22437;55.646;37.518;2022-08-19T13:24:26;6.53;;;3.47;;
36403;SDS011;22437;55.646;37.518;2022-08-19T13:27:00;11.23;;;4.25;;
36403;SDS011;22437;55.646;37.518;2022-08-19T13:29:31;8.63;;;3.88;;
36403;SDS011;22437;55.646;37.518;2022-08-19T13:32:14;6.18;;;3.65;;
36403;SDS011;22437;55.646;37.518;2022-08-19T13:35:02;12.77;;;5.05;;
36403;SDS011;22437;55.646;37.518;2022-08-19T13:37:33;9.15;;;5.95;;
36403;SDS011;22437;55.646;37.518;2022-08-19T13:40:12;8.48;;;4.72;;
36403;SDS011;22437;55.646;37.518;2022-08-19T13:42:46;7.28;;;4.85;;
36403;SDS011;22437;55.646;37.518;2022-08-19T13:45:21;8.57;;;4.55;;
36403;SDS011;22437;55.646;37.518;2022-08-19T13:47:53;12.70;;;6.13;;
36403;SDS011;22437;55.646;37.518;2022-08-19T13:50:26;13.02;;;10.35;;
36403;SDS011;22437;55.646;37.518;2022-08-19T13:52:59;13.35;;;11.90;;
36403;SDS011;22437;55.646;37.518;2022-08-19T13:55:29;17.05;;;11.63;;
36403;SDS011;22437;55.646;37.518;2022-08-19T13:58:00;17.88;;;11.00;;
36403;SDS011;22437;55.646;37.518;2022-08-19T14:03:04;17.02;;;11.85;;
36403;SDS011;22437;55.646;37.518;2022-08-19T14:05:35;13.65;;;9.57;;
36403;SDS011;22437;55.646;37.518;2022-08-19T14:08:06;14.23;;;9.27;;
36403;SDS011;22437;55.646;37.518;2022-08-19T14:10:38;14.05;;;9.82;;
36403;SDS011;22437;55.646;37.518;2022-08-19T14:13:10;13.43;;;12.10;;
36403;SDS011;22437;55.646;37.518;2022-08-19T14:15:44;16.02;;;11.82;;
36403;SDS011;22437;55.646;37.518;2022-08-19T14:18:21;23.98;;;16.15;;
36403;SDS011;22437;55.646;37.518;2022-08-19T14:20:57;25.27;;;15.48;;
36403;SDS011;22437;55.646;37.518;2022-08-19T14:23:27;18.03;;;14.50;;
36403;SDS011;22437;55.646;37.518;2022-08-19T14:26:05;20.92;;;14.45;;
36403;SDS011;22437;55.646;37.518;2022-08-19T14:28:37;20.67;;;14.27;;
36403;SDS011;22437;55.646;37.518;2022-08-19T14:31:12;18.13;;;12.85;;
36403;SDS011;22437;55.646;37.518;2022-08-19T14:33:43;14.63;;;11.48;;
36403;SDS011;22437;55.646;37.518;2022-08-19T14:36:15;18.40;;;11.40;;
36403;SDS011;22437;55.646;37.518;2022-08-19T14:38:46;15.77;;;11.48;;
36403;SDS011;22437;55.646;37.518;2022-08-19T14:41:17;22.27;;;10.85;;
36403;SDS011;22437;55.646;37.518;2022-08-19T14:43:51;16.58;;;10.90;;
36403;SDS011;22437;55.646;37.518;2022-08-19T14:46:24;23.75;;;14.98;;
36403;SDS011;22437;55.646;37.518;2022-08-19T14:48:56;29.98;;;20.63;;
36403;SDS011;22437;55.646;37.518;2022-08-19T14:51:28;24.52;;;20.25;;
36403;SDS011;22437;55.646;37.518;2022-08-19T14:53:58;28.17;;;19.63;;
36403;SDS011;22437;55.646;37.518;2022-08-19T14:56:29;24.67;;;18.25;;
36403;SDS011;22437;55.646;37.518;2022-08-19T14:58:59;21.75;;;17.38;;
36403;SDS011;22437;55.646;37.518;2022-08-19T15:01:33;29.98;;;18.33;;
36403;SDS011;22437;55.646;37.518;2022-08-19T15:04:06;26.25;;;17.25;;
36403;SDS011;22437;55.646;37.518;2022-08-19T15:06:36;16.75;;;14.23;;
36403;SDS011;22437;55.646;37.518;2022-08-19T15:09:10;16.70;;;13.57;;
36403;SDS011;22437;55.646;37.518;2022-08-19T15:11:42;16.58;;;14.15;;
36403;SDS011;22437;55.646;37.518;2022-08-19T15:14:14;15.95;;;12.88;;
36403;SDS011;22437;55.646;37.518;2022-08-19T15:16:47;18.38;;;12.50;;
36403;SDS011;22437;55.646;37.518;2022-08-19T15:19:17;19.00;;;12.98;;
36403;SDS011;22437;55.646;37.518;2022-08-19T15:21:51;19.02;;;11.60;;
36403;SDS011;22437;55.646;37.518;2022-08-19T15:24:22;24.15;;;11.50;;
36403;SDS011;22437;55.646;37.518;2022-08-19T15:26:56;14.98;;;10.10;;